createdAt,value
2022-11-29T00:00:27.555Z,31.70
2022-11-29T00:01:27.731Z,32.90
2022-11-29T00:02:27.967Z,32.80
2022-11-29T00:03:28.157Z,33.80
2022-11-29T00:04:28.249Z,32.20
2022-11-29T00:05:28.418Z,30.70
2022-11-29T00:06:28.592Z,31.50
2022-11-29T00:07:28.787Z,32.50
2022-11-29T00:08:28.958Z,33.00
2022-11-29T00:09:29.150Z,32.00
2022-11-29T00:10:29.271Z,33.20
2022-11-29T00:11:29.456Z,33.80
2022-11-29T00:12:29.624Z,33.60
2022-11-29T00:13:29.806Z,34.70
2022-11-29T00:14:29.966Z,30.80
2022-11-29T00:15:30.140Z,32.40
2022-11-29T00:16:30.409Z,31.70
2022-11-29T00:17:30.493Z,32.30
2022-11-29T00:18:30.675Z,31.40
2022-11-29T00:19:30.858Z,32.60
2022-11-29T00:20:31.012Z,32.80
2022-11-29T00:21:31.253Z,33.80
2022-11-29T00:22:31.341Z,31.20
2022-11-29T00:23:31.520Z,32.50
2022-11-29T00:24:31.757Z,32.40
2022-11-29T00:25:31.868Z,33.90
2022-11-29T00:26:32.033Z,30.80
2022-11-29T00:27:32.214Z,30.00
2022-11-29T00:28:32.363Z,31.00
2022-11-29T00:29:32.549Z,33.00
2022-11-29T00:30:32.743Z,32.40
2022-11-29T00:31:32.899Z,32.30
2022-11-29T00:32:33.060Z,31.40
2022-11-29T00:33:33.246Z,33.70
2022-11-29T00:34:33.419Z,30.40
2022-11-29T00:35:33.579Z,31.80
2022-11-29T00:36:33.754Z,33.50
2022-11-29T00:37:34.010Z,31.40
2022-11-29T00:38:34.121Z,32.90
2022-11-29T00:39:34.308Z,32.80
2022-11-29T00:40:34.465Z,31.90
2022-11-29T00:41:34.643Z,32.10
2022-11-29T00:42:34.796Z,31.90
2022-11-29T00:43:34.997Z,30.20
2022-11-29T00:44:35.159Z,32.90
2022-11-29T00:45:35.361Z,31.00
2022-11-29T00:46:35.517Z,34.00
2022-11-29T00:47:35.702Z,31.80
2022-11-29T00:48:35.883Z,31.70
2022-11-29T00:49:36.049Z,31.30
2022-11-29T00:50:36.223Z,31.20
2022-11-29T00:51:36.420Z,31.80
2022-11-29T00:52:36.601Z,32.70
2022-11-29T00:53:36.740Z,32.90
2022-11-29T00:54:36.910Z,33.00
2022-11-29T00:55:37.077Z,30.70
2022-11-29T00:56:37.239Z,31.60
2022-11-29T00:57:37.426Z,33.00
2022-11-29T00:58:37.581Z,32.90
2022-11-29T00:59:37.764Z,30.90
2022-11-29T01:00:37.932Z,32.10
2022-11-29T01:01:38.176Z,32.60
2022-11-29T01:02:38.315Z,33.60
2022-11-29T01:03:38.454Z,32.10
2022-11-29T01:04:38.626Z,32.60
2022-11-29T01:05:38.801Z,31.70
2022-11-29T01:06:38.975Z,34.60
2022-11-29T01:07:39.167Z,32.60
2022-11-29T01:08:39.323Z,33.30
2022-11-29T01:09:39.493Z,31.60
2022-11-29T01:10:39.654Z,30.20
2022-11-29T01:11:39.843Z,30.90
2022-11-29T01:12:40.002Z,31.70
2022-11-29T01:13:40.224Z,31.00
2022-11-29T01:14:40.395Z,32.40
2022-11-29T01:15:40.530Z,31.50
2022-11-29T01:16:40.752Z,32.20
2022-11-29T01:17:40.878Z,33.30
2022-11-29T01:18:41.037Z,32.20
2022-11-29T01:19:44.018Z,30.90
2022-11-29T01:20:42.377Z,29.80
2022-11-29T01:21:41.565Z,32.30
2022-11-29T01:22:41.752Z,31.00
2022-11-29T01:23:41.907Z,31.40
2022-11-29T01:24:42.464Z,31.80
2022-11-29T01:25:42.275Z,31.80
2022-11-29T01:26:42.442Z,32.60
2022-11-29T01:27:42.618Z,31.40
2022-11-29T01:28:42.777Z,31.10
2022-11-29T01:29:42.956Z,32.80
2022-11-29T01:30:43.162Z,31.80
2022-11-29T01:31:43.305Z,30.00
2022-11-29T01:32:43.506Z,32.40
2022-11-29T01:33:43.648Z,31.20
2022-11-29T01:34:44.164Z,31.10
2022-11-29T01:35:43.998Z,31.80
2022-11-29T01:36:44.170Z,30.20
2022-11-29T01:37:44.371Z,33.40
2022-11-29T01:38:44.540Z,32.70
2022-11-29T01:39:44.721Z,33.50
2022-11-29T01:40:44.868Z,31.90
2022-11-29T01:41:45.061Z,33.10
2022-11-29T01:42:45.232Z,30.40
2022-11-29T01:43:45.402Z,30.30
2022-11-29T01:44:45.910Z,31.40
2022-11-29T01:45:45.752Z,32.20
2022-11-29T01:46:45.911Z,33.10
2022-11-29T01:47:46.100Z,32.10
2022-11-29T01:48:46.270Z,32.20
2022-11-29T01:49:46.456Z,29.70
2022-11-29T01:50:46.623Z,30.80
2022-11-29T01:51:46.849Z,32.50
2022-11-29T01:52:46.976Z,31.40
2022-11-29T01:53:47.170Z,35.80
2022-11-29T01:54:47.517Z,32.00
2022-11-29T01:55:47.553Z,32.10
2022-11-29T01:56:47.660Z,32.20
2022-11-29T01:57:47.833Z,34.30
2022-11-29T01:58:48.019Z,31.50
2022-11-29T01:59:48.188Z,32.00
2022-11-29T02:00:48.352Z,32.60
2022-11-29T02:01:48.519Z,31.80
2022-11-29T02:02:48.754Z,31.50
2022-11-29T02:03:48.890Z,29.60
2022-11-29T02:04:49.064Z,30.40
2022-11-29T02:05:49.231Z,29.50
2022-11-29T02:06:49.395Z,32.60
2022-11-29T02:07:49.656Z,31.00
2022-11-29T02:08:49.749Z,30.80
2022-11-29T02:09:49.949Z,30.20
2022-11-29T02:10:50.099Z,29.50
2022-11-29T02:11:50.263Z,31.50
2022-11-29T02:12:50.437Z,31.50
2022-11-29T02:13:50.612Z,31.00
2022-11-29T02:14:50.799Z,32.90
2022-11-29T02:15:51.006Z,32.00
2022-11-29T02:16:55.117Z,30.00
2022-11-29T02:17:52.309Z,31.60
2022-11-29T02:18:51.534Z,29.20
2022-11-29T02:19:51.701Z,31.50
2022-11-29T02:20:51.870Z,31.20
2022-11-29T02:21:52.046Z,32.10
2022-11-29T02:22:52.213Z,31.40
2022-11-29T02:23:52.398Z,30.60
2022-11-29T02:24:52.577Z,30.80
2022-11-29T02:25:52.755Z,31.50
2022-11-29T02:26:52.909Z,32.10
2022-11-29T02:27:53.084Z,32.30
2022-11-29T02:28:53.272Z,31.50
2022-11-29T02:29:53.434Z,32.90
2022-11-29T02:30:53.670Z,31.50
2022-11-29T02:31:53.785Z,29.60
2022-11-29T02:32:53.961Z,32.80
2022-11-29T02:33:54.153Z,30.40
2022-11-29T02:34:54.326Z,31.50
2022-11-29T02:35:54.487Z,30.50
2022-11-29T02:36:54.674Z,32.10
2022-11-29T02:37:54.841Z,31.50
2022-11-29T02:38:55.002Z,31.80
2022-11-29T02:39:55.197Z,31.30
2022-11-29T02:40:55.353Z,30.00
2022-11-29T02:41:55.533Z,32.50
2022-11-29T02:42:57.033Z,31.70
2022-11-29T02:43:55.875Z,31.50
2022-11-29T02:44:56.026Z,31.50
2022-11-29T02:45:56.260Z,29.90
2022-11-29T02:46:56.365Z,32.40
2022-11-29T02:47:56.560Z,30.20
2022-11-29T02:48:56.741Z,31.50
2022-11-29T02:49:56.895Z,31.90
2022-11-29T02:50:57.070Z,31.50
2022-11-29T02:51:57.264Z,30.50
2022-11-29T02:52:57.424Z,29.60
2022-11-29T02:53:57.604Z,31.70
2022-11-29T02:54:57.770Z,30.80
2022-11-29T02:55:57.941Z,33.20
2022-11-29T02:56:58.120Z,31.20
2022-11-29T02:57:58.293Z,31.60
2022-11-29T02:58:58.448Z,32.30
2022-11-29T02:59:58.632Z,30.90
2022-11-29T03:00:58.807Z,31.00
2022-11-29T03:01:58.982Z,32.20
2022-11-29T03:02:59.168Z,32.70
2022-11-29T03:03:59.384Z,31.70
2022-11-29T03:04:59.509Z,31.20
2022-11-29T03:05:59.689Z,31.50
2022-11-29T03:06:59.852Z,32.00
2022-11-29T03:08:00.068Z,33.30
2022-11-29T03:09:00.228Z,32.60
2022-11-29T03:10:00.404Z,31.30
2022-11-29T03:11:00.575Z,31.50
2022-11-29T03:12:00.743Z,30.30
2022-11-29T03:13:00.919Z,32.50
2022-11-29T03:14:01.082Z,30.60
2022-11-29T03:15:01.264Z,30.60
2022-11-29T03:16:01.512Z,31.20
2022-11-29T03:17:01.585Z,32.20
2022-11-29T03:18:01.764Z,29.00
2022-11-29T03:19:01.942Z,33.20
2022-11-29T03:20:02.131Z,32.20
2022-11-29T03:21:09.305Z,31.30
2022-11-29T03:22:02.447Z,30.10
2022-11-29T03:23:02.615Z,31.00
2022-11-29T03:24:02.815Z,32.60
2022-11-29T03:25:02.976Z,31.80
2022-11-29T03:26:03.144Z,31.90
2022-11-29T03:27:03.317Z,32.30
2022-11-29T03:28:03.479Z,31.40
2022-11-29T03:29:03.681Z,30.70
2022-11-29T03:30:03.831Z,32.50
2022-11-29T03:31:04.037Z,32.10
2022-11-29T03:32:04.186Z,33.10
2022-11-29T03:33:04.347Z,32.40
2022-11-29T03:34:04.544Z,31.30
2022-11-29T03:35:04.731Z,30.50
2022-11-29T03:36:04.899Z,30.60
2022-11-29T03:37:05.067Z,31.40
2022-11-29T03:38:05.232Z,30.80
2022-11-29T03:39:05.430Z,32.20
2022-11-29T03:40:05.588Z,31.50
2022-11-29T03:41:05.757Z,32.20
2022-11-29T03:42:05.925Z,32.20
2022-11-29T03:43:06.095Z,32.00
2022-11-29T03:44:06.280Z,32.70
2022-11-29T03:45:06.449Z,32.90
2022-11-29T03:46:06.685Z,32.60
2022-11-29T03:47:06.804Z,32.50
2022-11-29T03:48:06.966Z,33.40
2022-11-29T03:49:07.160Z,33.30
2022-11-29T03:50:07.320Z,31.20
2022-11-29T03:51:07.509Z,31.70
2022-11-29T03:52:07.663Z,31.70
2022-11-29T03:53:08.101Z,31.50
2022-11-29T03:54:08.040Z,31.30
2022-11-29T03:55:08.208Z,31.60
2022-11-29T03:56:08.380Z,30.90
2022-11-29T03:57:08.552Z,32.90
2022-11-29T03:58:08.743Z,33.10
2022-11-29T03:59:08.911Z,32.10
2022-11-29T04:00:09.076Z,34.30
2022-11-29T04:01:09.335Z,29.90
2022-11-29T04:02:09.434Z,31.10
2022-11-29T04:03:09.596Z,31.00
2022-11-29T04:04:09.775Z,31.00
2022-11-29T04:05:09.963Z,32.30
2022-11-29T04:06:10.125Z,30.20
2022-11-29T04:07:10.302Z,33.30
2022-11-29T04:08:10.460Z,31.10
2022-11-29T04:09:10.642Z,33.80
2022-11-29T04:10:10.827Z,32.60
2022-11-29T04:11:10.984Z,30.80
2022-11-29T04:12:11.152Z,32.00
2022-11-29T04:13:11.319Z,33.10
2022-11-29T04:14:11.505Z,33.00
2022-11-29T04:15:15.467Z,29.40
2022-11-29T04:16:11.866Z,31.10
2022-11-29T04:17:12.021Z,30.80
2022-11-29T04:18:12.181Z,31.40
2022-11-29T04:19:12.376Z,31.80
2022-11-29T04:20:12.536Z,32.70
2022-11-29T04:21:12.705Z,32.20
2022-11-29T04:22:12.877Z,33.10
2022-11-29T04:23:13.052Z,31.80
2022-11-29T04:24:13.226Z,34.00
2022-11-29T04:25:13.396Z,31.80
2022-11-29T04:26:13.559Z,31.10
2022-11-29T04:27:13.715Z,31.80
2022-11-29T04:28:13.915Z,32.90
2022-11-29T04:29:14.105Z,31.20
2022-11-29T04:30:14.268Z,30.50
2022-11-29T04:31:14.523Z,34.60
2022-11-29T04:32:14.596Z,32.30
2022-11-29T04:33:14.773Z,30.90
2022-11-29T04:34:14.959Z,32.70
2022-11-29T04:35:15.130Z,32.10
2022-11-29T04:36:15.293Z,31.70
2022-11-29T04:37:15.468Z,31.40
2022-11-29T04:38:15.640Z,31.50
2022-11-29T04:39:15.820Z,31.70
2022-11-29T04:40:15.997Z,33.20
2022-11-29T04:41:16.159Z,31.50
2022-11-29T04:42:16.329Z,31.30
2022-11-29T04:43:16.509Z,31.70
2022-11-29T04:44:16.687Z,31.90
2022-11-29T04:45:16.851Z,31.50
2022-11-29T04:46:17.066Z,32.60
2022-11-29T04:47:17.211Z,31.90
2022-11-29T04:48:17.381Z,33.00
2022-11-29T04:49:17.571Z,32.20
2022-11-29T04:50:17.742Z,30.40
2022-11-29T04:51:17.905Z,31.40
2022-11-29T04:52:18.086Z,31.80
2022-11-29T04:53:18.276Z,30.00
2022-11-29T04:54:18.449Z,32.80
2022-11-29T04:55:26.188Z,33.00
2022-11-29T04:56:19.756Z,30.40
2022-11-29T04:57:18.967Z,32.00
2022-11-29T04:58:19.113Z,31.90
2022-11-29T04:59:19.307Z,30.80
2022-11-29T05:00:19.483Z,32.40
2022-11-29T05:01:19.719Z,30.70
2022-11-29T05:02:19.860Z,30.80
2022-11-29T05:03:19.988Z,32.80
2022-11-29T05:04:20.214Z,31.40
2022-11-29T05:05:20.345Z,31.50
2022-11-29T05:06:20.522Z,32.90
2022-11-29T05:07:20.736Z,32.50
2022-11-29T05:08:20.867Z,32.00
2022-11-29T05:09:21.095Z,32.80
2022-11-29T05:10:21.227Z,32.00
2022-11-29T05:11:26.455Z,33.20
2022-11-29T05:12:22.597Z,31.30
2022-11-29T05:13:21.753Z,30.30
2022-11-29T05:14:21.940Z,31.90
2022-11-29T05:15:22.105Z,29.80
2022-11-29T05:16:22.321Z,30.80
2022-11-29T05:17:22.446Z,30.80
2022-11-29T05:18:22.618Z,32.80
2022-11-29T05:19:22.813Z,32.30
2022-11-29T05:20:22.978Z,31.40
2022-11-29T05:21:23.160Z,32.20
2022-11-29T05:22:23.331Z,31.80
2022-11-29T05:23:23.498Z,31.20
2022-11-29T05:24:23.672Z,32.00
2022-11-29T05:25:23.833Z,31.20
2022-11-29T05:26:24.002Z,32.20
2022-11-29T05:27:24.202Z,31.90
2022-11-29T05:28:24.401Z,31.10
2022-11-29T05:29:24.532Z,31.50
2022-11-29T05:30:24.696Z,32.00
2022-11-29T05:31:24.972Z,29.90
2022-11-29T05:32:25.043Z,31.10
2022-11-29T05:33:25.234Z,31.60
2022-11-29T05:34:29.025Z,32.10
2022-11-29T05:35:26.570Z,32.80
2022-11-29T05:36:25.735Z,31.30
2022-11-29T05:37:25.898Z,29.80
2022-11-29T05:38:26.105Z,31.60
2022-11-29T05:39:26.275Z,31.20
2022-11-29T05:40:26.450Z,31.80
2022-11-29T05:41:26.619Z,32.40
2022-11-29T05:42:26.793Z,33.10
2022-11-29T05:43:26.980Z,32.80
2022-11-29T05:44:27.136Z,31.30
2022-11-29T05:45:27.316Z,35.00
2022-11-29T05:46:27.496Z,33.50
2022-11-29T05:47:31.463Z,32.20
2022-11-29T05:48:27.833Z,31.10
2022-11-29T05:49:28.003Z,31.30
2022-11-29T05:50:28.165Z,32.00
2022-11-29T05:51:28.342Z,31.60
2022-11-29T05:52:28.513Z,33.10
2022-11-29T05:53:28.714Z,30.90
2022-11-29T05:54:28.875Z,34.00
2022-11-29T05:55:29.045Z,30.60
2022-11-29T05:56:29.215Z,31.80
2022-11-29T05:57:29.406Z,31.30
2022-11-29T05:58:30.714Z,32.40
2022-11-29T05:59:29.735Z,31.20
2022-11-29T06:00:29.909Z,31.50
2022-11-29T06:01:30.168Z,30.60
2022-11-29T06:02:30.320Z,32.70
2022-11-29T06:03:30.403Z,32.10
2022-11-29T06:04:30.576Z,30.50
2022-11-29T06:05:30.752Z,31.50
2022-11-29T06:06:30.926Z,30.70
2022-11-29T06:07:31.165Z,31.30
2022-11-29T06:08:31.246Z,31.70
2022-11-29T06:09:31.429Z,30.50
2022-11-29T06:10:31.587Z,32.20
2022-11-29T06:11:31.779Z,31.90
2022-11-29T06:12:31.952Z,32.00
2022-11-29T06:13:32.133Z,31.70
2022-11-29T06:14:32.298Z,34.80
2022-11-29T06:15:32.467Z,33.00
2022-11-29T06:16:32.690Z,32.70
2022-11-29T06:17:38.579Z,31.50
2022-11-29T06:18:33.993Z,33.20
2022-11-29T06:19:33.179Z,31.60
2022-11-29T06:20:33.364Z,32.60
2022-11-29T06:21:33.561Z,33.50
2022-11-29T06:22:33.721Z,33.40
2022-11-29T06:23:33.904Z,32.20
2022-11-29T06:24:34.068Z,32.40
2022-11-29T06:25:34.254Z,34.80
2022-11-29T06:26:34.422Z,34.00
2022-11-29T06:27:34.598Z,33.30
2022-11-29T06:28:34.754Z,32.20
2022-11-29T06:29:34.942Z,32.20
2022-11-29T06:30:35.112Z,32.30
2022-11-29T06:31:35.303Z,34.30
2022-11-29T06:32:35.427Z,32.80
2022-11-29T06:33:35.612Z,33.20
2022-11-29T06:34:35.767Z,31.50
2022-11-29T06:35:35.944Z,32.80
2022-11-29T06:36:36.127Z,31.30
2022-11-29T06:37:36.292Z,32.90
2022-11-29T06:38:36.453Z,30.00
2022-11-29T06:39:36.642Z,32.50
2022-11-29T06:40:36.796Z,32.30
2022-11-29T06:41:36.991Z,31.80
2022-11-29T06:42:37.143Z,32.40
2022-11-29T06:43:37.322Z,30.90
2022-11-29T06:44:37.503Z,33.50
2022-11-29T06:45:37.674Z,33.50
2022-11-29T06:46:37.896Z,33.30
2022-11-29T06:47:38.003Z,32.40
2022-11-29T06:48:38.184Z,31.60
2022-11-29T06:49:38.363Z,32.30
2022-11-29T06:50:38.520Z,31.30
2022-11-29T06:51:38.695Z,32.00
2022-11-29T06:52:38.859Z,33.10
2022-11-29T06:53:39.062Z,32.60
2022-11-29T06:54:39.211Z,33.60
2022-11-29T06:55:39.400Z,34.20
2022-11-29T06:56:40.880Z,32.00
2022-11-29T06:57:39.727Z,29.80
2022-11-29T06:58:39.899Z,32.60
2022-11-29T06:59:40.080Z,32.90
2022-11-29T07:00:40.281Z,32.30
2022-11-29T07:01:40.487Z,33.70
2022-11-29T07:02:40.593Z,31.70
2022-11-29T07:03:40.781Z,33.30
2022-11-29T07:04:45.657Z,32.50
2022-11-29T07:05:42.115Z,33.60
2022-11-29T07:06:41.262Z,33.40
2022-11-29T07:07:41.515Z,32.30
2022-11-29T07:08:41.643Z,33.50
2022-11-29T07:09:41.777Z,32.20
2022-11-29T07:10:41.954Z,31.30
2022-11-29T07:11:42.119Z,33.00
2022-11-29T07:12:42.288Z,33.00
2022-11-29T07:13:42.505Z,31.70
2022-11-29T07:14:42.809Z,32.60
2022-11-29T07:15:42.823Z,33.10
2022-11-29T07:16:43.038Z,33.10
2022-11-29T07:17:43.173Z,31.30
2022-11-29T07:18:43.389Z,32.40
2022-11-29T07:19:43.516Z,32.00
2022-11-29T07:20:43.690Z,34.30
2022-11-29T07:21:43.863Z,32.90
2022-11-29T07:22:44.032Z,33.10
2022-11-29T07:23:44.227Z,33.80
2022-11-29T07:24:44.624Z,33.40
2022-11-29T07:25:44.553Z,32.60
2022-11-29T07:26:44.711Z,32.00
2022-11-29T07:27:44.886Z,32.40
2022-11-29T07:28:45.079Z,31.00
2022-11-29T07:29:45.237Z,33.40
2022-11-29T07:30:45.424Z,31.90
2022-11-29T07:31:45.625Z,32.80
2022-11-29T07:32:50.166Z,33.00
2022-11-29T07:33:46.935Z,34.20
2022-11-29T07:34:46.312Z,35.00
2022-11-29T07:35:46.265Z,32.50
2022-11-29T07:36:46.462Z,34.50
2022-11-29T07:37:46.663Z,31.20
2022-11-29T07:38:46.804Z,30.90
2022-11-29T07:39:46.995Z,33.40
2022-11-29T07:40:47.170Z,31.30
2022-11-29T07:41:47.359Z,32.30
2022-11-29T07:42:47.565Z,31.10
2022-11-29T07:43:47.718Z,32.60
2022-11-29T07:44:48.197Z,31.20
2022-11-29T07:45:48.070Z,33.40
2022-11-29T07:46:48.320Z,21.50
2022-11-29T07:47:48.437Z,23.80
2022-11-29T07:48:48.590Z,27.20
2022-11-29T07:49:48.779Z,28.70
2022-11-29T07:50:48.958Z,25.80
2022-11-29T07:51:49.132Z,29.00
2022-11-29T07:52:49.347Z,28.70
2022-11-29T07:53:49.501Z,30.50
2022-11-29T07:54:49.654Z,31.00
2022-11-29T07:55:49.827Z,29.10
2022-11-29T07:56:50.021Z,29.20
2022-11-29T07:57:50.234Z,30.70
2022-11-29T07:58:50.425Z,27.60
2022-11-29T07:59:50.539Z,30.50
2022-11-29T08:00:50.790Z,32.40
2022-11-29T08:01:50.961Z,21.30
2022-11-29T08:02:51.088Z,17.00
2022-11-29T08:03:51.229Z,16.40
2022-11-29T08:04:51.401Z,18.60
2022-11-29T08:05:51.582Z,19.10
2022-11-29T08:06:51.770Z,16.90
2022-11-29T08:07:52.080Z,17.20
2022-11-29T08:08:52.121Z,17.30
2022-11-29T08:09:52.310Z,17.90
2022-11-29T08:10:52.495Z,17.60
2022-11-29T08:11:52.676Z,19.90
2022-11-29T08:12:52.884Z,17.90
2022-11-29T08:13:53.040Z,20.00
2022-11-29T08:14:53.191Z,20.00
2022-11-29T08:15:53.380Z,18.10
2022-11-29T08:16:53.539Z,17.30
2022-11-29T08:17:53.738Z,18.30
2022-11-29T08:18:53.888Z,18.60
2022-11-29T08:19:54.067Z,19.10
2022-11-29T08:20:54.253Z,18.00
2022-11-29T08:21:54.440Z,19.80
2022-11-29T08:22:54.638Z,19.90
2022-11-29T08:23:54.796Z,20.20
2022-11-29T08:24:54.953Z,17.90
2022-11-29T08:25:55.127Z,17.70
2022-11-29T08:26:55.315Z,19.30
2022-11-29T08:27:55.526Z,18.80
2022-11-29T08:28:55.677Z,19.60
2022-11-29T08:29:55.854Z,22.60
2022-11-29T08:30:56.036Z,25.50
2022-11-29T08:31:56.269Z,26.00
2022-11-29T08:32:56.416Z,26.60
2022-11-29T08:33:56.563Z,28.30
2022-11-29T08:34:56.750Z,27.50
2022-11-29T08:35:56.926Z,28.60
2022-11-29T08:36:57.076Z,27.60
2022-11-29T08:37:57.277Z,28.80
2022-11-29T08:39:04.714Z,30.40
2022-11-29T08:39:58.598Z,30.60
2022-11-29T08:40:57.783Z,29.00
2022-11-29T08:41:57.934Z,30.80
2022-11-29T08:42:58.112Z,31.40
2022-11-29T08:43:58.317Z,29.80
2022-11-29T08:44:58.469Z,29.00
2022-11-29T08:45:58.661Z,30.00
2022-11-29T08:46:58.866Z,29.60
2022-11-29T08:47:59.025Z,28.90
2022-11-29T08:48:59.173Z,30.20
2022-11-29T08:49:59.349Z,29.80
2022-11-29T08:50:59.529Z,28.70
2022-11-29T08:51:59.727Z,31.30
2022-11-29T08:52:59.873Z,29.70
2022-11-29T08:54:00.050Z,33.00
2022-11-29T08:55:03.199Z,33.80
2022-11-29T08:56:00.410Z,28.30
2022-11-29T08:57:31.416Z,30.40
2022-11-29T08:58:01.783Z,31.10
2022-11-29T08:59:00.949Z,29.00
2022-11-29T09:00:01.122Z,30.40
2022-11-29T09:01:01.356Z,30.90
2022-11-29T09:02:01.544Z,30.10
2022-11-29T09:03:01.683Z,32.10
2022-11-29T09:04:01.938Z,28.50
2022-11-29T09:05:02.031Z,31.20
2022-11-29T09:06:02.178Z,30.70
2022-11-29T09:07:02.376Z,29.90
2022-11-29T09:08:02.580Z,29.80
2022-11-29T09:09:02.694Z,29.60
2022-11-29T09:10:02.883Z,32.10
2022-11-29T09:11:03.067Z,29.90
2022-11-29T09:12:03.268Z,30.80
2022-11-29T09:13:03.458Z,32.00
2022-11-29T09:14:03.596Z,31.20
2022-11-29T09:15:03.767Z,30.70
2022-11-29T09:16:03.971Z,30.20
2022-11-29T09:17:04.088Z,32.40
2022-11-29T09:18:04.282Z,31.10
2022-11-29T09:19:04.447Z,29.60
2022-11-29T09:20:04.590Z,29.40
2022-11-29T09:21:07.766Z,29.90
2022-11-29T09:22:04.929Z,32.00
2022-11-29T09:23:05.153Z,30.20
2022-11-29T09:24:05.258Z,31.50
2022-11-29T09:25:05.449Z,32.20
2022-11-29T09:26:05.631Z,28.70
2022-11-29T09:27:05.820Z,32.90
2022-11-29T09:28:06.035Z,30.30
2022-11-29T09:29:06.183Z,30.10
2022-11-29T09:30:06.343Z,30.20
2022-11-29T09:31:06.525Z,32.80
2022-11-29T09:32:06.790Z,33.00
2022-11-29T09:33:06.926Z,30.60
2022-11-29T09:34:07.077Z,30.80
2022-11-29T09:35:07.262Z,31.60
2022-11-29T09:36:07.418Z,30.30
2022-11-29T09:37:07.631Z,31.60
2022-11-29T09:38:07.797Z,32.00
2022-11-29T09:39:07.963Z,31.90
2022-11-29T09:40:08.119Z,28.80
2022-11-29T09:41:08.304Z,30.50
2022-11-29T09:42:08.484Z,22.50
2022-11-29T09:43:08.698Z,22.00
2022-11-29T09:44:08.860Z,22.30
2022-11-29T09:45:09.014Z,23.40
2022-11-29T09:46:09.238Z,21.60
2022-11-29T09:47:09.365Z,21.50
2022-11-29T09:48:09.512Z,22.50
2022-11-29T09:49:09.741Z,22.30
2022-11-29T09:50:09.871Z,20.20
2022-11-29T09:51:10.025Z,21.30
2022-11-29T09:52:10.200Z,21.50
2022-11-29T09:53:10.364Z,21.40
2022-11-29T09:54:10.546Z,24.50
2022-11-29T09:55:10.719Z,27.60
2022-11-29T09:56:10.893Z,25.70
2022-11-29T09:57:11.238Z,24.80
2022-11-29T09:58:11.218Z,27.90
2022-11-29T09:59:11.405Z,26.60
2022-11-29T10:00:11.577Z,25.90
2022-11-29T10:01:11.802Z,26.10
2022-11-29T10:02:14.826Z,23.60
2022-11-29T10:03:13.071Z,24.70
2022-11-29T10:04:12.248Z,28.20
2022-11-29T10:05:12.430Z,27.00
2022-11-29T10:06:12.600Z,28.70
2022-11-29T10:07:12.778Z,25.80
2022-11-29T10:08:12.919Z,25.30
2022-11-29T10:09:13.104Z,25.40
2022-11-29T10:10:13.296Z,28.50
2022-11-29T10:11:13.460Z,27.40
2022-11-29T10:12:13.628Z,27.20
2022-11-29T10:13:13.800Z,28.50
2022-11-29T10:14:13.990Z,30.00
2022-11-29T10:15:14.191Z,29.00
2022-11-29T10:16:14.394Z,28.40
2022-11-29T10:17:14.486Z,27.40
2022-11-29T10:18:14.641Z,29.50
2022-11-29T10:19:14.826Z,27.80
2022-11-29T10:20:14.966Z,28.60
2022-11-29T10:21:15.132Z,27.50
2022-11-29T10:22:15.307Z,26.80
2022-11-29T10:23:15.735Z,26.80
2022-11-29T10:24:15.626Z,27.20
2022-11-29T10:25:15.819Z,29.40
2022-11-29T10:26:15.951Z,28.90
2022-11-29T10:27:16.123Z,28.10
2022-11-29T10:28:16.313Z,28.90
2022-11-29T10:29:16.494Z,27.70
2022-11-29T10:30:16.654Z,31.60
2022-11-29T10:31:16.920Z,29.10
2022-11-29T10:32:17.026Z,28.60
2022-11-29T10:33:17.254Z,27.40
2022-11-29T10:34:17.366Z,28.40
2022-11-29T10:35:17.574Z,29.40
2022-11-29T10:36:17.720Z,29.50
2022-11-29T10:37:17.921Z,29.80
2022-11-29T10:38:33.483Z,30.20
2022-11-29T10:39:19.260Z,29.50
2022-11-29T10:40:18.427Z,29.70
2022-11-29T10:41:18.623Z,27.80
2022-11-29T10:42:18.817Z,28.10
2022-11-29T10:43:18.971Z,26.60
2022-11-29T10:44:19.127Z,28.60
2022-11-29T10:45:19.319Z,27.50
2022-11-29T10:46:19.514Z,28.50
2022-11-29T10:47:19.649Z,30.00
2022-11-29T10:48:19.802Z,29.40
2022-11-29T10:49:19.999Z,28.10
2022-11-29T10:50:20.174Z,31.20
2022-11-29T10:51:20.328Z,27.30
2022-11-29T10:52:20.504Z,29.30
2022-11-29T10:53:20.690Z,30.50
2022-11-29T10:54:20.881Z,28.50
2022-11-29T10:55:21.121Z,29.60
2022-11-29T10:56:21.232Z,30.70
2022-11-29T10:57:21.418Z,28.80
2022-11-29T10:58:27.514Z,27.50
2022-11-29T10:59:22.778Z,27.10
2022-11-29T11:00:21.965Z,29.10
2022-11-29T11:01:22.140Z,29.30
2022-11-29T11:02:22.282Z,27.50
2022-11-29T11:03:22.465Z,29.40
2022-11-29T11:04:22.662Z,30.30
2022-11-29T11:05:22.876Z,28.40
2022-11-29T11:06:22.985Z,29.00
2022-11-29T11:07:23.230Z,29.30
2022-11-29T11:08:23.330Z,30.00
2022-11-29T11:09:23.509Z,27.70
2022-11-29T11:10:23.715Z,27.30
2022-11-29T11:11:23.871Z,27.70
2022-11-29T11:12:24.057Z,27.60
2022-11-29T11:13:24.206Z,28.60
2022-11-29T11:14:24.386Z,30.10
2022-11-29T11:15:24.600Z,29.90
2022-11-29T11:16:24.780Z,30.30
2022-11-29T11:17:24.956Z,30.20
2022-11-29T11:18:25.094Z,29.60
2022-11-29T11:19:25.278Z,29.00
2022-11-29T11:20:25.489Z,31.40
2022-11-29T11:21:25.645Z,29.90
2022-11-29T11:22:25.788Z,29.20
2022-11-29T11:23:25.980Z,29.50
2022-11-29T11:24:26.167Z,28.30
2022-11-29T11:25:26.338Z,29.70
2022-11-29T11:26:26.491Z,30.00
2022-11-29T11:27:26.677Z,29.00
2022-11-29T11:28:26.878Z,32.70
2022-11-29T11:29:27.049Z,28.70
2022-11-29T11:30:27.510Z,28.40
2022-11-29T11:31:27.435Z,28.50
2022-11-29T11:32:27.581Z,30.60
2022-11-29T11:33:27.757Z,29.20
2022-11-29T11:34:27.929Z,30.00
2022-11-29T11:35:28.104Z,27.60
2022-11-29T11:36:28.250Z,30.10
2022-11-29T11:37:28.468Z,27.40
2022-11-29T11:38:28.618Z,28.70
2022-11-29T11:39:28.810Z,28.60
2022-11-29T11:40:29.296Z,28.70
2022-11-29T11:41:29.185Z,29.00
2022-11-29T11:42:29.349Z,28.30
2022-11-29T11:43:29.495Z,29.90
2022-11-29T11:45:30.833Z,30.30
2022-11-29T11:46:30.036Z,28.10
2022-11-29T11:47:30.279Z,29.60
2022-11-29T11:48:30.410Z,27.70
2022-11-29T11:49:30.545Z,29.80
2022-11-29T11:50:30.729Z,28.20
2022-11-29T11:51:30.907Z,28.40
2022-11-29T11:52:32.969Z,27.30
2022-11-29T11:53:31.283Z,29.70
2022-11-29T11:54:31.435Z,28.20
2022-11-29T11:55:31.623Z,30.80
2022-11-29T11:56:31.796Z,29.10
2022-11-29T11:57:32.012Z,29.00
2022-11-29T11:58:32.158Z,30.00
2022-11-29T11:59:32.337Z,29.10
2022-11-29T12:01:01.973Z,29.40
2022-11-29T12:01:33.678Z,28.90
2022-11-29T12:02:32.985Z,28.20
2022-11-29T12:03:33.069Z,29.00
2022-11-29T12:04:33.196Z,26.30
2022-11-29T12:05:33.386Z,31.40
2022-11-29T12:06:33.583Z,30.80
2022-11-29T12:08:06.124Z,28.00
2022-11-29T12:08:34.970Z,27.90
2022-11-29T12:09:34.087Z,30.00
2022-11-29T12:10:34.270Z,31.10
2022-11-29T12:11:34.442Z,29.70
2022-11-29T12:12:34.582Z,29.80
2022-11-29T12:13:34.784Z,29.20
2022-11-29T12:14:34.935Z,29.80
2022-11-29T12:15:35.177Z,29.80
2022-11-29T12:16:35.308Z,31.30
2022-11-29T12:17:35.470Z,29.30
2022-11-29T12:18:35.652Z,31.60
2022-11-29T12:19:35.803Z,30.40
2022-11-29T12:20:35.997Z,32.00
2022-11-29T12:21:36.182Z,33.00
2022-11-29T12:22:36.363Z,30.50
2022-11-29T12:23:36.558Z,27.80
2022-11-29T12:24:36.712Z,29.00
2022-11-29T12:25:36.902Z,31.50
2022-11-29T12:27:38.215Z,29.40
2022-11-29T12:28:37.410Z,30.60
2022-11-29T12:29:37.566Z,29.40
2022-11-29T12:30:37.714Z,28.90
2022-11-29T12:31:37.929Z,29.30
2022-11-29T12:32:38.086Z,29.80
2022-11-29T12:33:38.285Z,30.60
2022-11-29T12:34:42.378Z,29.90
2022-11-29T12:35:38.621Z,29.20
2022-11-29T12:36:38.768Z,23.40
2022-11-29T12:37:38.948Z,27.40
2022-11-29T12:38:39.164Z,26.90
2022-11-29T12:39:39.324Z,28.50
2022-11-29T12:40:39.472Z,26.90
2022-11-29T12:41:39.669Z,27.60
2022-11-29T12:42:39.839Z,26.80
2022-11-29T12:43:39.998Z,27.80
2022-11-29T12:44:40.183Z,28.10
2022-11-29T12:45:40.358Z,27.70
2022-11-29T12:46:40.655Z,27.00
2022-11-29T12:47:40.801Z,28.10
2022-11-29T12:48:40.909Z,27.30
2022-11-29T12:49:41.072Z,27.30
2022-11-29T12:50:41.233Z,31.00
2022-11-29T12:51:41.433Z,26.80
2022-11-29T12:52:41.610Z,26.50
2022-11-29T12:53:41.747Z,27.30
2022-11-29T12:54:42.008Z,27.70
2022-11-29T12:55:42.140Z,27.60
2022-11-29T12:56:42.262Z,23.40